Time,TemperatureF,DewpointF,PressureIn,WindDirection,WindDirectionDegrees,WindSpeedMPH,WindSpeedGustMPH,Humidity,HourlyPrecipIn,Conditions,Clouds,dailyrainin,SolarRadiationWatts/m^2,SoftwareType,DateUTC
2013-08-20 00:00:00,71.1,69.3,30.22,NNW,335,0.0,0.0,94,0.00,,SCT,0.00,0.00,VWS V14.01,2013-08-20 04:00:00,
2013-08-20 00:01:00,70.8,69.3,30.22,NNW,335,0.0,0.0,95,0.00,,SCT,0.00,0.00,VWS V14.01,2013-08-20 04:01:00,
2013-08-20 00:06:00,70.8,69.3,30.22,NNW,335,0.0,0.0,95,0.00,,SCT,0.00,0.00,VWS V14.01,2013-08-20 04:06:00,
2013-08-20 00:11:00,70.7,69.2,30.22,NNW,335,0.0,0.0,95,0.00,,SCT,0.00,0.00,VWS V14.01,2013-08-20 04:11:00,
2013-08-20 00:16:00,70.7,69.2,30.22,NNW,335,0.0,0.0,95,0.00,,SCT,0.00,0.00,VWS V14.01,2013-08-20 04:16:00,
2013-08-20 00:21:00,70.6,69.1,30.22,NNW,335,0.0,0.0,95,0.00,,SCT,0.00,0.00,VWS V14.01,2013-08-20 04:21:00,
2013-08-20 00:26:00,70.7,69.2,30.22,NNW,335,0.0,0.0,95,0.00,,SCT,0.00,0.00,VWS V14.01,2013-08-20 04:26:00,
2013-08-20 00:31:00,70.6,69.1,30.22,NNW,335,0.0,0.0,95,0.00,,SCT,0.00,0.00,VWS V14.01,2013-08-20 04:31:00,
2013-08-20 00:36:00,70.5,69.0,30.22,NNW,335,0.0,0.0,95,0.00,,SCT,0.00,0.00,VWS V14.01,2013-08-20 04:36:00,
2013-08-20 00:41:00,70.5,69.0,30.22,NNW,335,0.0,0.0,95,0.00,,SCT,0.00,0.00,VWS V14.01,2013-08-20 04:41:00,
2013-08-20 00:46:00,70.5,69.0,30.22,NNW,335,0.0,0.0,95,0.00,,SCT,0.00,0.00,VWS V14.01,2013-08-20 04:46:00,
2013-08-20 00:51:00,70.5,69.3,30.22,NNW,335,0.0,0.0,96,0.00,,SCT,0.00,0.00,VWS V14.01,2013-08-20 04:51:00,
2013-08-20 00:56:00,70.4,69.2,30.22,NNW,335,0.0,0.0,96,0.00,,SCT,0.00,0.00,VWS V14.01,2013-08-20 04:56:00,
2013-08-20 01:00:00,70.5,69.3,30.22,NNW,335,0.0,0.0,96,0.00,,SCT,0.00,0.00,VWS V14.01,2013-08-20 05:00:00,
2013-08-20 01:01:00,70.4,69.2,30.22,NNW,335,0.0,0.0,96,0.00,,SCT,0.00,0.00,VWS V14.01,2013-08-20 05:01:00,
2013-08-20 01:06:00,70.4,69.2,30.22,NNW,335,0.0,0.0,96,0.00,,SCT,0.00,0.00,VWS V14.01,2013-08-20 05:06:00,
2013-08-20 01:11:00,70.4,69.2,30.22,NNW,335,0.0,0.0,96,0.00,,SCT,0.00,0.00,VWS V14.01,2013-08-20 05:11:00,
2013-08-20 01:16:00,70.4,69.2,30.22,NNW,335,0.0,0.0,96,0.00,,SCT,0.00,0.00,VWS V14.01,2013-08-20 05:16:00,
2013-08-20 01:21:00,70.4,69.2,30.22,NNW,335,0.0,0.0,96,0.00,,SCT,0.00,0.00,VWS V14.01,2013-08-20 05:21:00,
2013-08-20 01:26:00,70.4,69.2,30.22,NNW,335,0.0,0.0,96,0.00,,SCT,0.00,0.00,VWS V14.01,2013-08-20 05:26:00,
2013-08-20 01:31:00,70.4,69.2,30.22,NNW,335,0.0,0.0,96,0.00,,SCT,0.00,0.00,VWS V14.01,2013-08-20 05:31:00,
2013-08-20 01:36:00,70.4,69.2,30.22,NNW,335,0.0,0.0,96,0.00,,SCT,0.00,0.00,VWS V14.01,2013-08-20 05:36:00,
2013-08-20 01:41:00,70.4,69.2,30.22,NNW,335,0.0,0.0,96,0.00,,SCT,0.00,0.00,VWS V14.01,2013-08-20 05:41:00,
2013-08-20 01:46:00,70.4,69.2,30.22,NNW,335,0.0,0.0,96,0.00,,SCT,0.00,0.00,VWS V14.01,2013-08-20 05:46:00,
2013-08-20 01:51:00,70.3,69.1,30.22,NNW,335,0.0,0.0,96,0.00,,SCT,0.00,0.00,VWS V14.01,2013-08-20 05:51:00,
2013-08-20 01:56:00,70.2,69.0,30.21,NNW,335,0.0,0.0,96,0.00,,SCT,0.00,0.00,VWS V14.01,2013-08-20 05:56:00,
2013-08-20 02:00:00,70.3,69.1,30.22,NNW,335,0.0,0.0,96,0.00,,SCT,0.00,0.00,VWS V14.01,2013-08-20 06:00:00,
2013-08-20 02:01:00,70.3,69.1,30.21,NNW,335,0.0,0.0,96,0.00,,SCT,0.00,0.00,VWS V14.01,2013-08-20 06:01:00,
2013-08-20 02:06:00,70.3,69.1,30.21,NNW,335,0.0,0.0,96,0.00,,SCT,0.00,0.00,VWS V14.01,2013-08-20 06:06:00,
2013-08-20 02:11:00,70.4,69.2,30.21,NNW,335,0.0,0.0,96,0.00,,SCT,0.00,0.00,VWS V14.01,2013-08-20 06:11:00,
2013-08-20 02:16:00,70.3,69.1,30.21,NNW,335,0.0,0.0,96,0.00,,SCT,0.00,0.00,VWS V14.01,2013-08-20 06:16:00,
2013-08-20 02:21:00,70.4,69.2,30.21,NNW,335,0.0,0.0,96,0.00,,SCT,0.00,0.00,VWS V14.01,2013-08-20 06:21:00,
2013-08-20 02:26:00,70.3,69.1,30.21,NNW,335,0.0,0.0,96,0.00,,SCT,0.00,0.00,VWS V14.01,2013-08-20 06:26:00,
2013-08-20 02:31:00,70.1,68.9,30.21,NNW,335,0.0,0.0,96,0.00,,SCT,0.00,0.00,VWS V14.01,2013-08-20 06:31:00,
2013-08-20 02:36:00,70.2,69.0,30.21,NNW,335,0.0,0.0,96,0.00,,SCT,0.00,0.00,VWS V14.01,2013-08-20 06:36:00,
2013-08-20 02:41:00,70.3,69.1,30.20,NNW,335,0.0,0.0,96,0.00,,SCT,0.00,0.00,VWS V14.01,2013-08-20 06:41:00,
2013-08-20 02:46:00,70.3,69.4,30.21,NNW,335,0.0,0.0,97,0.00,,SCT,0.00,0.00,VWS V14.01,2013-08-20 06:46:00,
2013-08-20 02:51:00,70.3,69.4,30.20,NNW,335,0.0,0.0,97,0.00,,SCT,0.00,0.00,VWS V14.01,2013-08-20 06:51:00,
2013-08-20 02:56:00,70.3,69.4,30.20,NNW,335,0.0,0.0,97,0.00,,SCT,0.00,0.00,VWS V14.01,2013-08-20 06:56:00,
2013-08-20 03:00:00,70.3,69.4,30.20,NNW,335,0.0,0.0,97,0.00,,SCT,0.00,0.00,VWS V14.01,2013-08-20 07:00:00,
2013-08-20 03:01:00,70.3,69.4,30.20,NNW,335,0.0,0.0,97,0.00,,SCT,0.00,0.00,VWS V14.01,2013-08-20 07:01:00,
2013-08-20 03:06:00,70.3,69.4,30.20,NNW,335,0.0,0.0,97,0.00,,SCT,0.00,0.00,VWS V14.01,2013-08-20 07:06:00,
2013-08-20 03:11:00,70.2,69.0,30.20,NNW,335,0.0,0.0,96,0.00,,SCT,0.00,0.00,VWS V14.01,2013-08-20 07:11:00,
2013-08-20 03:16:00,70.2,69.0,30.20,NNW,335,0.0,0.0,96,0.00,,SCT,0.00,0.00,VWS V14.01,2013-08-20 07:16:00,
2013-08-20 03:21:00,70.2,69.3,30.20,NNW,335,0.0,0.0,97,0.00,,SCT,0.00,0.00,VWS V14.01,2013-08-20 07:21:00,
2013-08-20 03:26:00,70.1,69.2,30.20,NNW,335,0.0,0.0,97,0.00,,SCT,0.00,0.00,VWS V14.01,2013-08-20 07:26:00,
2013-08-20 03:31:00,70.0,68.8,30.19,NNW,335,0.0,0.0,96,0.00,,SCT,0.00,0.00,VWS V14.01,2013-08-20 07:31:00,
2013-08-20 03:36:00,69.9,69.0,30.19,NNW,335,0.0,0.0,97,0.00,,SCT,0.00,0.00,VWS V14.01,2013-08-20 07:36:00,
2013-08-20 03:41:00,69.8,68.9,30.19,NNW,335,0.0,0.0,97,0.00,,SCT,0.00,0.00,VWS V14.01,2013-08-20 07:41:00,
2013-08-20 03:46:00,69.6,68.4,30.19,NNW,335,0.0,0.0,96,0.00,,SCT,0.00,0.00,VWS V14.01,2013-08-20 07:46:00,
2013-08-20 03:51:00,69.4,68.2,30.19,NNW,335,0.0,0.0,96,0.00,,SCT,0.00,0.00,VWS V14.01,2013-08-20 07:51:00,
2013-08-20 03:56:00,69.3,68.4,30.19,NNW,335,0.0,0.0,97,0.00,,SCT,0.00,0.00,VWS V14.01,2013-08-20 07:56:00,
2013-08-20 04:00:00,69.4,68.2,30.19,NNW,335,0.0,0.0,96,0.00,,SCT,0.00,0.00,VWS V14.01,2013-08-20 08:00:00,
2013-08-20 04:01:00,69.3,68.4,30.19,NNW,335,0.0,0.0,97,0.00,,SCT,0.00,0.00,VWS V14.01,2013-08-20 08:01:00,
2013-08-20 04:06:00,69.1,68.2,30.19,NNW,335,0.0,0.0,97,0.00,,SCT,0.00,0.00,VWS V14.01,2013-08-20 08:06:00,
2013-08-20 04:11:00,69.1,68.2,30.20,NNW,335,0.0,0.0,97,0.00,,SCT,0.00,0.00,VWS V14.01,2013-08-20 08:11:00,
2013-08-20 04:16:00,69.0,68.1,30.20,NNW,335,0.0,0.0,97,0.00,,SCT,0.00,0.00,VWS V14.01,2013-08-20 08:16:00,
2013-08-20 04:21:00,69.0,68.1,30.20,NNW,335,0.0,0.0,97,0.00,,SCT,0.00,0.00,VWS V14.01,2013-08-20 08:21:00,
2013-08-20 04:26:00,68.9,68.0,30.20,NNW,335,0.0,0.0,97,0.00,,SCT,0.00,0.00,VWS V14.01,2013-08-20 08:26:00,
2013-08-20 04:31:00,68.8,67.9,30.20,NNW,335,0.0,0.0,97,0.00,,SCT,0.00,0.00,VWS V14.01,2013-08-20 08:31:00,
2013-08-20 04:36:00,68.7,67.8,30.20,NE,34,0.0,0.0,97,0.00,,SCT,0.00,0.00,VWS V14.01,2013-08-20 08:36:00,
2013-08-20 04:41:00,68.6,67.7,30.20,NE,34,0.0,0.0,97,0.00,,SCT,0.00,0.00,VWS V14.01,2013-08-20 08:41:00,
2013-08-20 04:46:00,68.5,67.6,30.20,NE,34,0.0,0.0,97,0.00,,SCT,0.00,0.00,VWS V14.01,2013-08-20 08:46:00,
2013-08-20 04:51:00,68.4,67.5,30.20,NE,34,0.0,0.0,97,0.00,,SCT,0.00,0.00,VWS V14.01,2013-08-20 08:51:00,
2013-08-20 04:56:00,68.3,67.4,30.20,NE,34,0.0,0.0,97,0.00,,SCT,0.00,0.00,VWS V14.01,2013-08-20 08:56:00,
2013-08-20 05:00:00,68.3,67.4,30.20,NE,34,0.0,0.0,97,0.00,,SCT,0.00,0.00,VWS V14.01,2013-08-20 09:00:00,
2013-08-20 05:01:00,68.1,67.2,30.20,NE,34,0.0,0.0,97,0.00,,SCT,0.00,0.00,VWS V14.01,2013-08-20 09:01:00,
2013-08-20 05:06:00,68.0,67.1,30.20,NNE,24,0.0,0.0,97,0.00,,SCT,0.00,0.00,VWS V14.01,2013-08-20 09:06:00,
2013-08-20 05:11:00,67.9,67.0,30.20,NNE,17,0.0,0.0,97,0.00,,SCT,0.00,0.00,VWS V14.01,2013-08-20 09:11:00,
2013-08-20 05:16:00,67.8,66.9,30.20,NNE,17,0.0,0.0,97,0.00,,SCT,0.00,0.00,VWS V14.01,2013-08-20 09:16:00,
2013-08-20 05:21:00,67.7,66.8,30.21,NNE,29,0.0,0.0,97,0.00,,SCT,0.00,0.00,VWS V14.01,2013-08-20 09:21:00,
2013-08-20 05:26:00,67.6,66.7,30.21,NNE,28,0.0,0.0,97,0.00,,SCT,0.00,0.00,VWS V14.01,2013-08-20 09:26:00,
2013-08-20 05:31:00,67.5,66.6,30.20,NNE,28,0.0,0.0,97,0.00,,SCT,0.00,0.00,VWS V14.01,2013-08-20 09:31:00,
2013-08-20 05:36:00,67.5,66.6,30.20,NNE,28,0.0,0.0,97,0.00,,SCT,0.00,0.00,VWS V14.01,2013-08-20 09:36:00,
2013-08-20 05:41:00,67.5,66.6,30.20,NNE,29,0.0,0.0,97,0.00,,SCT,0.00,0.00,VWS V14.01,2013-08-20 09:41:00,
2013-08-20 05:46:00,67.5,66.6,30.20,NNE,28,0.0,0.0,97,0.00,,SCT,0.00,0.00,VWS V14.01,2013-08-20 09:46:00,
2013-08-20 05:51:00,67.5,66.6,30.21,NNE,28,0.0,0.0,97,0.00,,SCT,0.00,0.00,VWS V14.01,2013-08-20 09:51:00,
2013-08-20 05:56:00,67.5,66.6,30.21,NNE,28,0.0,0.0,97,0.00,,SCT,0.00,0.00,VWS V14.01,2013-08-20 09:56:00,
2013-08-20 06:00:00,67.5,66.6,30.21,NNE,28,0.0,0.0,97,0.00,,SCT,0.00,0.00,VWS V14.01,2013-08-20 10:00:00,
2013-08-20 06:01:00,67.4,66.5,30.21,NNE,28,0.0,0.0,97,0.01,,SCT,0.01,0.00,VWS V14.01,2013-08-20 10:01:00,
2013-08-20 06:06:00,67.3,66.4,30.21,NNE,28,0.0,0.0,97,0.01,,SCT,0.01,0.00,VWS V14.01,2013-08-20 10:06:00,
2013-08-20 06:11:00,67.3,66.4,30.21,NNE,28,0.0,0.0,97,0.01,,SCT,0.01,0.00,VWS V14.01,2013-08-20 10:11:00,
2013-08-20 06:16:00,67.3,66.4,30.21,NNE,28,0.0,0.0,97,0.01,,SCT,0.01,0.00,VWS V14.01,2013-08-20 10:16:00,
2013-08-20 06:21:00,67.3,66.4,30.22,NNE,28,0.0,0.0,97,0.01,,SCT,0.01,0.00,VWS V14.01,2013-08-20 10:21:00,
2013-08-20 06:26:00,67.4,66.5,30.22,NNE,28,0.0,0.0,97,0.01,,SCT,0.01,0.00,VWS V14.01,2013-08-20 10:26:00,
2013-08-20 06:31:00,67.3,66.4,30.22,NNE,28,0.0,0.0,97,0.01,,SCT,0.01,0.00,VWS V14.01,2013-08-20 10:31:00,
2013-08-20 06:36:00,67.2,66.3,30.22,NNE,28,0.0,0.0,97,0.01,,SCT,0.01,0.00,VWS V14.01,2013-08-20 10:36:00,
2013-08-20 06:41:00,67.2,66.3,30.22,NNE,28,0.0,0.0,97,0.01,,SCT,0.01,5.00,VWS V14.01,2013-08-20 10:41:00,
2013-08-20 06:46:00,67.2,66.3,30.22,NNE,29,0.0,0.0,97,0.01,,SCT,0.01,9.00,VWS V14.01,2013-08-20 10:46:00,
2013-08-20 06:51:00,67.1,66.2,30.22,NNE,28,0.0,0.0,97,0.01,,SCT,0.01,12.00,VWS V14.01,2013-08-20 10:51:00,
2013-08-20 06:56:00,67.1,66.5,30.22,NNE,28,0.0,0.0,98,0.01,,SCT,0.01,16.00,VWS V14.01,2013-08-20 10:56:00,
2013-08-20 07:00:00,67.1,66.2,30.22,NNE,28,0.0,0.0,97,0.01,,SCT,0.01,14.00,VWS V14.01,2013-08-20 11:00:00,
2013-08-20 07:01:00,67.0,66.1,30.23,NNE,28,0.0,0.0,97,0.01,,SCT,0.01,21.00,VWS V14.01,2013-08-20 11:01:00,
2013-08-20 07:06:00,66.8,65.9,30.23,NNE,28,0.0,0.0,97,0.01,,SCT,0.01,28.00,VWS V14.01,2013-08-20 11:06:00,
2013-08-20 07:11:00,66.7,65.8,30.23,NNE,28,0.0,0.0,97,0.01,,SCT,0.01,35.00,VWS V14.01,2013-08-20 11:11:00,
2013-08-20 07:16:00,66.7,66.1,30.23,NNE,28,0.0,0.0,98,0.01,,SCT,0.01,39.00,VWS V14.01,2013-08-20 11:16:00,
2013-08-20 07:21:00,66.7,66.1,30.24,NNE,28,0.0,0.0,98,0.01,,SCT,0.01,49.00,VWS V14.01,2013-08-20 11:21:00,
2013-08-20 07:26:00,66.8,66.2,30.24,NNE,28,0.0,0.0,98,0.01,,SCT,0.01,58.00,VWS V14.01,2013-08-20 11:26:00,
2013-08-20 07:31:00,67.0,66.4,30.24,NNE,29,0.0,0.0,98,0.01,,SCT,0.01,56.00,VWS V14.01,2013-08-20 11:31:00,
2013-08-20 07:36:00,67.1,66.5,30.24,NNE,28,0.0,0.0,98,0.01,,SCT,0.01,69.00,VWS V14.01,2013-08-20 11:36:00,
2013-08-20 07:41:00,67.3,66.7,30.24,NNE,28,0.0,0.0,98,0.01,,SCT,0.01,79.00,VWS V14.01,2013-08-20 11:41:00,
2013-08-20 07:46:00,67.3,66.7,30.25,NNE,28,0.0,0.0,98,0.01,,SCT,0.01,86.00,VWS V14.01,2013-08-20 11:46:00,
2013-08-20 07:51:00,67.4,66.8,30.25,NNE,28,0.0,0.0,98,0.01,,SCT,0.01,113.00,VWS V14.01,2013-08-20 11:51:00,
2013-08-20 07:56:00,67.6,67.0,30.25,NNE,28,0.0,0.0,98,0.00,,SCT,0.01,100.00,VWS V14.01,2013-08-20 11:56:00,
2013-08-20 08:00:00,67.4,66.8,30.25,NNE,28,0.0,0.0,98,0.01,,SCT,0.01,116.00,VWS V14.01,2013-08-20 12:00:00,
2013-08-20 08:01:00,67.8,67.2,30.25,NNE,28,0.0,0.0,98,0.00,,SCT,0.01,118.00,VWS V14.01,2013-08-20 12:01:00,
2013-08-20 08:06:00,68.0,67.4,30.25,NNE,28,0.0,0.0,98,0.00,,SCT,0.01,125.00,VWS V14.01,2013-08-20 12:06:00,
2013-08-20 08:11:00,68.3,67.7,30.25,NNE,28,0.0,0.0,98,0.00,,SCT,0.01,127.00,VWS V14.01,2013-08-20 12:11:00,
2013-08-20 08:16:00,68.3,67.7,30.26,NNE,28,0.0,0.0,98,0.00,,SCT,0.01,132.00,VWS V14.01,2013-08-20 12:16:00,
2013-08-20 08:21:00,68.3,67.7,30.26,NNE,28,0.0,0.0,98,0.00,,SCT,0.01,102.00,VWS V14.01,2013-08-20 12:21:00,
2013-08-20 08:26:00,68.4,67.8,30.26,NNE,28,0.0,0.0,98,0.00,,SCT,0.01,114.00,VWS V14.01,2013-08-20 12:26:00,
2013-08-20 08:31:00,68.3,67.7,30.26,NNE,28,0.0,0.0,98,0.00,,SCT,0.01,120.00,VWS V14.01,2013-08-20 12:31:00,
2013-08-20 08:36:00,68.3,67.7,30.26,NNE,28,0.0,0.0,98,0.00,,SCT,0.01,98.00,VWS V14.01,2013-08-20 12:36:00,
2013-08-20 08:41:00,68.3,67.7,30.26,NNE,28,0.0,0.0,98,0.00,,SCT,0.01,158.00,VWS V14.01,2013-08-20 12:41:00,
2013-08-20 08:46:00,68.3,67.7,30.26,NNE,29,0.0,0.0,98,0.00,,SCT,0.01,118.00,VWS V14.01,2013-08-20 12:46:00,
2013-08-20 08:51:00,68.4,67.8,30.26,NNE,28,0.0,0.0,98,0.00,,SCT,0.01,111.00,VWS V14.01,2013-08-20 12:51:00,
2013-08-20 08:56:00,68.5,67.9,30.26,NNE,29,0.0,0.0,98,0.00,,SCT,0.01,125.00,VWS V14.01,2013-08-20 12:56:00,
2013-08-20 09:00:00,68.4,67.8,30.26,NNE,28,0.0,0.0,98,0.00,,SCT,0.01,132.00,VWS V14.01,2013-08-20 13:00:00,
2013-08-20 09:01:00,68.7,68.1,30.26,NNE,29,0.0,0.0,98,0.00,,SCT,0.01,144.00,VWS V14.01,2013-08-20 13:01:00,
2013-08-20 09:06:00,69.0,68.4,30.26,NNE,28,0.0,0.0,98,0.00,,SCT,0.01,179.00,VWS V14.01,2013-08-20 13:06:00,
2013-08-20 09:11:00,69.2,68.6,30.26,NNE,28,0.0,0.0,98,0.00,,SCT,0.01,243.00,VWS V14.01,2013-08-20 13:11:00,
2013-08-20 09:16:00,69.3,68.7,30.26,NNE,28,0.0,0.0,98,0.00,,SCT,0.01,255.00,VWS V14.01,2013-08-20 13:16:00,
2013-08-20 09:21:00,69.7,69.1,30.26,NNE,29,0.0,0.0,98,0.00,,SCT,0.01,204.00,VWS V14.01,2013-08-20 13:21:00,
2013-08-20 09:26:00,69.9,69.3,30.26,NNE,28,0.0,0.0,98,0.00,,SCT,0.01,287.00,VWS V14.01,2013-08-20 13:26:00,
2013-08-20 09:31:00,70.4,69.8,30.26,NNE,28,0.0,0.0,98,0.00,,SCT,0.01,471.00,VWS V14.01,2013-08-20 13:31:00,
2013-08-20 09:36:00,71.0,70.4,30.26,NNE,28,0.0,0.0,98,0.00,,SCT,0.01,367.00,VWS V14.01,2013-08-20 13:36:00,
2013-08-20 09:41:00,71.2,70.6,30.26,NNE,28,0.0,0.0,98,0.00,,SCT,0.01,371.00,VWS V14.01,2013-08-20 13:41:00,
2013-08-20 09:46:00,71.5,70.9,30.26,North,360,0.0,0.0,98,0.00,,SCT,0.01,520.00,VWS V14.01,2013-08-20 13:46:00,
2013-08-20 09:51:00,72.0,71.4,30.26,NNW,346,0.0,0.0,98,0.00,,SCT,0.01,492.00,VWS V14.01,2013-08-20 13:51:00,
2013-08-20 09:56:00,72.4,71.5,30.26,West,277,0.0,0.0,97,0.00,,SCT,0.01,432.00,VWS V14.01,2013-08-20 13:56:00,
2013-08-20 10:00:00,73.1,72.2,30.27,West,277,0.0,0.0,97,0.00,,SCT,0.01,536.00,VWS V14.01,2013-08-20 14:00:00,
2013-08-20 10:05:00,74.2,72.7,30.27,West,273,0.0,0.0,95,0.00,,SCT,0.01,520.00,VWS V14.01,2013-08-20 14:05:00,
2013-08-20 10:10:00,74.7,72.6,30.27,SW,235,0.0,0.0,93,0.00,,SCT,0.01,571.00,VWS V14.01,2013-08-20 14:10:00,
2013-08-20 10:15:00,75.1,72.3,30.27,SE,145,0.0,0.0,91,0.00,,SCT,0.01,577.00,VWS V14.01,2013-08-20 14:15:00,
2013-08-20 10:20:00,75.8,72.7,30.27,WSW,247,0.0,0.0,90,0.00,,SCT,0.01,587.00,VWS V14.01,2013-08-20 14:20:00,
2013-08-20 10:25:00,76.0,72.2,30.27,SE,126,0.0,0.0,88,0.00,,SCT,0.01,603.00,VWS V14.01,2013-08-20 14:25:00,
2013-08-20 10:30:00,76.3,71.8,30.27,West,264,0.0,0.0,86,0.00,,SCT,0.01,617.00,VWS V14.01,2013-08-20 14:30:00,
2013-08-20 10:35:00,76.6,71.8,30.27,SW,221,0.0,0.0,85,0.00,,SCT,0.01,612.00,VWS V14.01,2013-08-20 14:35:00,
2013-08-20 10:40:00,77.3,72.4,30.27,SW,217,0.0,0.0,85,0.00,,SCT,0.01,624.00,VWS V14.01,2013-08-20 14:40:00,
2013-08-20 10:45:00,78.1,72.5,30.27,SW,221,0.0,0.0,83,0.00,,SCT,0.01,631.00,VWS V14.01,2013-08-20 14:45:00,
2013-08-20 10:50:00,78.3,72.0,30.27,SW,223,0.0,0.0,81,0.00,,SCT,0.01,547.00,VWS V14.01,2013-08-20 14:50:00,
2013-08-20 10:55:00,78.6,72.3,30.28,SW,225,0.0,0.0,81,0.00,,SCT,0.01,663.00,VWS V14.01,2013-08-20 14:55:00,
2013-08-20 11:00:00,79.3,72.6,30.27,WNW,288,0.0,0.0,80,0.00,,SCT,0.01,705.00,VWS V14.01,2013-08-20 15:00:00,
2013-08-20 11:05:00,80.0,73.3,30.27,SSE,152,0.0,0.0,80,0.00,,SCT,0.01,714.00,VWS V14.01,2013-08-20 15:05:00,
2013-08-20 11:10:00,80.3,72.4,30.28,SSW,206,0.0,0.0,77,0.00,,SCT,0.01,700.00,VWS V14.01,2013-08-20 15:10:00,
2013-08-20 11:15:00,80.6,72.3,30.28,South,188,0.0,0.0,76,0.00,,SCT,0.01,717.00,VWS V14.01,2013-08-20 15:15:00,
2013-08-20 11:20:00,80.6,72.7,30.27,South,186,0.0,0.0,77,0.00,,SCT,0.01,751.00,VWS V14.01,2013-08-20 15:20:00,
2013-08-20 11:25:00,80.7,72.8,30.27,SSE,147,0.0,0.0,77,0.00,,SCT,0.01,758.00,VWS V14.01,2013-08-20 15:25:00,
2013-08-20 11:30:00,80.7,72.4,30.27,SW,229,0.0,0.0,76,0.00,,SCT,0.01,677.00,VWS V14.01,2013-08-20 15:30:00,
2013-08-20 11:35:00,80.6,72.7,30.27,SE,140,0.0,0.0,77,0.00,,SCT,0.01,819.00,VWS V14.01,2013-08-20 15:35:00,
2013-08-20 11:40:00,80.7,72.4,30.27,South,188,0.0,0.0,76,0.00,,SCT,0.01,777.00,VWS V14.01,2013-08-20 15:40:00,
2013-08-20 11:45:00,80.7,72.8,30.27,SW,232,0.0,0.0,77,0.00,,SCT,0.01,729.00,VWS V14.01,2013-08-20 15:45:00,
2013-08-20 11:50:00,81.0,72.7,30.27,SW,221,0.0,0.0,76,0.00,,SCT,0.01,768.00,VWS V14.01,2013-08-20 15:50:00,
2013-08-20 11:55:00,81.3,73.4,30.27,SSW,211,0.0,0.0,77,0.00,,SCT,0.01,661.00,VWS V14.01,2013-08-20 15:55:00,
2013-08-20 12:00:00,81.4,72.7,30.28,SSW,204,0.0,0.0,75,0.00,,SCT,0.01,267.00,VWS V14.01,2013-08-20 16:00:00,
2013-08-20 12:05:00,81.1,72.8,30.28,SW,223,0.0,0.0,76,0.00,,SCT,0.01,838.00,VWS V14.01,2013-08-20 16:05:00,
2013-08-20 12:10:00,81.4,72.7,30.28,SW,222,0.0,0.0,75,0.01,,SCT,0.02,863.00,VWS V14.01,2013-08-20 16:10:00,
2013-08-20 12:15:00,81.8,74.3,30.28,SSE,155,0.0,0.0,78,0.01,,SCT,0.02,882.00,VWS V14.01,2013-08-20 16:15:00,
2013-08-20 12:20:00,81.9,72.8,30.27,SW,218,0.0,0.0,74,0.01,,SCT,0.02,315.00,VWS V14.01,2013-08-20 16:20:00,
2013-08-20 12:25:00,81.7,72.6,30.27,SSE,167,0.0,0.0,74,0.01,,SCT,0.02,939.00,VWS V14.01,2013-08-20 16:25:00,
2013-08-20 12:30:00,81.6,72.5,30.27,SW,217,0.0,0.0,74,0.01,,SCT,0.02,367.00,VWS V14.01,2013-08-20 16:30:00,
2013-08-20 12:35:00,81.6,72.5,30.27,SSW,213,0.0,0.0,74,0.01,,SCT,0.02,921.00,VWS V14.01,2013-08-20 16:35:00,
2013-08-20 12:40:00,81.4,72.7,30.27,SSW,203,0.0,0.0,75,0.01,,SCT,0.02,367.00,VWS V14.01,2013-08-20 16:40:00,
2013-08-20 12:45:00,81.5,72.8,30.27,SW,215,0.0,0.0,75,0.01,,SCT,0.02,766.00,VWS V14.01,2013-08-20 16:45:00,
2013-08-20 12:50:00,81.8,72.3,30.27,NW,321,0.0,0.0,73,0.01,,SCT,0.02,399.00,VWS V14.01,2013-08-20 16:50:00,
2013-08-20 12:55:00,81.5,72.0,30.27,West,277,0.0,0.0,73,0.01,,SCT,0.02,376.00,VWS V14.01,2013-08-20 16:55:00,
2013-08-20 13:00:00,81.2,71.7,30.27,West,280,0.0,0.0,73,0.01,,SCT,0.02,323.00,VWS V14.01,2013-08-20 17:00:00,
2013-08-20 13:05:00,80.9,72.2,30.27,West,281,0.0,0.0,75,0.01,,SCT,0.02,174.00,VWS V14.01,2013-08-20 17:05:00,
2013-08-20 13:10:00,81.1,71.6,30.27,West,271,0.0,0.0,73,0.01,,SCT,0.02,218.00,VWS V14.01,2013-08-20 17:10:00,
2013-08-20 13:15:00,81.5,72.4,30.27,WNW,288,0.0,0.0,74,0.01,,SCT,0.02,218.00,VWS V14.01,2013-08-20 17:15:00,
2013-08-20 13:20:00,81.8,72.7,30.27,West,265,0.0,0.0,74,0.01,,SCT,0.02,810.00,VWS V14.01,2013-08-20 17:20:00,
2013-08-20 13:25:00,82.1,72.2,30.27,WSW,239,0.0,0.0,72,0.01,,SCT,0.02,854.00,VWS V14.01,2013-08-20 17:25:00,
2013-08-20 13:30:00,82.2,71.9,30.27,West,267,0.0,0.0,71,0.01,,SCT,0.02,747.00,VWS V14.01,2013-08-20 17:30:00,
2013-08-20 13:35:00,81.8,72.3,30.27,WNW,302,0.0,0.0,73,0.01,,SCT,0.02,274.00,VWS V14.01,2013-08-20 17:35:00,
2013-08-20 13:40:00,82.4,71.6,30.27,NW,322,0.0,0.0,70,0.01,,SCT,0.02,756.00,VWS V14.01,2013-08-20 17:40:00,
2013-08-20 13:45:00,82.7,71.9,30.26,NW,313,0.0,0.0,70,0.01,,SCT,0.02,715.00,VWS V14.01,2013-08-20 17:45:00,
2013-08-20 13:50:00,82.5,70.4,30.26,WNW,298,0.0,0.0,67,0.01,,SCT,0.02,515.00,VWS V14.01,2013-08-20 17:50:00,
2013-08-20 13:55:00,82.2,71.4,30.26,West,274,0.0,0.0,70,0.00,,SCT,0.02,413.00,VWS V14.01,2013-08-20 17:55:00,
2013-08-20 14:00:00,82.1,72.2,30.26,West,278,0.0,0.0,72,0.00,,SCT,0.02,682.00,VWS V14.01,2013-08-20 18:00:00,
2013-08-20 14:05:00,82.1,71.8,30.26,West,267,0.0,0.0,71,0.00,,SCT,0.02,504.00,VWS V14.01,2013-08-20 18:05:00,
2013-08-20 14:10:00,81.8,72.3,30.26,NW,311,0.0,0.0,73,0.00,,SCT,0.02,387.00,VWS V14.01,2013-08-20 18:10:00,
2013-08-20 14:15:00,81.6,72.5,30.25,NW,308,0.0,0.0,74,0.00,,SCT,0.02,471.00,VWS V14.01,2013-08-20 18:15:00,
2013-08-20 14:20:00,81.8,73.1,30.25,NW,306,0.0,0.0,75,0.00,,SCT,0.02,480.00,VWS V14.01,2013-08-20 18:20:00,
2013-08-20 14:25:00,82.0,73.3,30.25,West,266,0.0,0.0,75,0.00,,SCT,0.02,543.00,VWS V14.01,2013-08-20 18:25:00,
2013-08-20 14:30:00,82.2,73.1,30.25,NW,319,0.0,0.0,74,0.00,,SCT,0.02,742.00,VWS V14.01,2013-08-20 18:30:00,
2013-08-20 14:35:00,82.6,73.1,30.25,WNW,298,0.0,0.0,73,0.00,,SCT,0.02,592.00,VWS V14.01,2013-08-20 18:35:00,
2013-08-20 14:40:00,82.4,72.1,30.25,NW,304,0.0,0.0,71,0.00,,SCT,0.02,752.00,VWS V14.01,2013-08-20 18:40:00,
2013-08-20 14:45:00,82.5,73.0,30.25,NW,308,0.0,0.0,73,0.00,,SCT,0.02,705.00,VWS V14.01,2013-08-20 18:45:00,
2013-08-20 14:50:00,82.8,72.4,30.25,WNW,300,0.0,0.0,71,0.00,,SCT,0.02,763.00,VWS V14.01,2013-08-20 18:50:00,
2013-08-20 14:55:00,82.7,72.3,30.24,WSW,250,0.0,0.0,71,0.00,,SCT,0.02,608.00,VWS V14.01,2013-08-20 18:55:00,
2013-08-20 15:00:00,82.5,72.2,30.24,North,349,0.0,0.0,71,0.00,,SCT,0.02,584.00,VWS V14.01,2013-08-20 19:00:00,
2013-08-20 15:05:00,83.3,72.9,30.24,NNW,340,0.0,0.0,71,0.00,,SCT,0.02,522.00,VWS V14.01,2013-08-20 19:05:00,
2013-08-20 15:10:00,83.4,72.2,30.24,WNW,288,0.0,0.0,69,0.00,,SCT,0.02,529.00,VWS V14.01,2013-08-20 19:10:00,
2013-08-20 15:15:00,83.0,72.6,30.24,West,272,0.0,0.0,71,0.00,,SCT,0.02,547.00,VWS V14.01,2013-08-20 19:15:00,
2013-08-20 15:20:00,82.9,72.1,30.24,West,281,0.0,0.0,70,0.00,,SCT,0.02,497.00,VWS V14.01,2013-08-20 19:20:00,
2013-08-20 15:25:00,82.8,72.0,30.24,WSW,256,0.0,0.0,70,0.00,,SCT,0.02,448.00,VWS V14.01,2013-08-20 19:25:00,
2013-08-20 15:30:00,82.8,72.4,30.24,West,262,0.0,0.0,71,0.00,,SCT,0.02,680.00,VWS V14.01,2013-08-20 19:30:00,
2013-08-20 15:35:00,83.9,73.9,30.23,WNW,294,0.0,0.0,72,0.00,,SCT,0.02,585.00,VWS V14.01,2013-08-20 19:35:00,
2013-08-20 15:40:00,84.0,72.3,30.23,NW,318,0.0,0.0,68,0.00,,SCT,0.02,469.00,VWS V14.01,2013-08-20 19:40:00,
2013-08-20 15:45:00,83.8,73.0,30.23,WNW,300,0.0,0.0,70,0.00,,SCT,0.02,209.00,VWS V14.01,2013-08-20 19:45:00,
2013-08-20 15:50:00,83.3,72.9,30.23,NW,317,0.0,0.0,71,0.00,,SCT,0.02,197.00,VWS V14.01,2013-08-20 19:50:00,
2013-08-20 15:55:00,82.8,72.9,30.23,NW,313,0.0,0.0,72,0.00,,SCT,0.02,221.00,VWS V14.01,2013-08-20 19:55:00,
2013-08-20 16:00:00,82.6,73.9,30.23,WNW,284,0.0,0.0,75,0.00,,SCT,0.02,786.00,VWS V14.01,2013-08-20 20:00:00,
2013-08-20 16:05:00,82.8,74.1,30.23,WNW,295,0.0,0.0,75,0.00,,SCT,0.02,714.00,VWS V14.01,2013-08-20 20:05:00,
2013-08-20 16:10:00,82.8,74.5,30.23,NNW,327,0.0,0.0,76,0.00,,SCT,0.02,657.00,VWS V14.01,2013-08-20 20:10:00,
2013-08-20 16:15:00,83.3,74.2,30.22,NW,309,0.0,0.0,74,0.00,,SCT,0.02,626.00,VWS V14.01,2013-08-20 20:15:00,
2013-08-20 16:20:00,82.8,73.7,30.22,WNW,284,0.0,0.0,74,0.00,,SCT,0.02,515.00,VWS V14.01,2013-08-20 20:20:00,
2013-08-20 16:25:00,82.5,73.8,30.22,WNW,296,0.0,0.0,75,0.00,,SCT,0.02,267.00,VWS V14.01,2013-08-20 20:25:00,
2013-08-20 16:30:00,82.3,74.0,30.22,West,261,0.0,0.0,76,0.00,,SCT,0.02,229.00,VWS V14.01,2013-08-20 20:30:00,
2013-08-20 16:35:00,82.2,74.3,30.22,WNW,284,0.0,0.0,77,0.00,,SCT,0.02,276.00,VWS V14.01,2013-08-20 20:35:00,
2013-08-20 16:40:00,82.6,73.9,30.22,North,355,0.0,0.0,75,0.00,,SCT,0.02,383.00,VWS V14.01,2013-08-20 20:40:00,
2013-08-20 16:45:00,82.9,73.4,30.22,WNW,296,0.0,0.0,73,0.00,,SCT,0.02,603.00,VWS V14.01,2013-08-20 20:45:00,
2013-08-20 16:50:00,82.9,73.8,30.22,NNW,340,0.0,0.0,74,0.00,,SCT,0.02,540.00,VWS V14.01,2013-08-20 20:50:00,
2013-08-20 16:55:00,82.8,73.7,30.22,North,5,0.0,0.0,74,0.00,,SCT,0.02,508.00,VWS V14.01,2013-08-20 20:55:00,
2013-08-20 17:00:00,83.0,73.1,30.22,NNE,28,0.0,0.0,72,0.00,,SCT,0.02,466.00,VWS V14.01,2013-08-20 21:00:00,
2013-08-20 17:05:00,82.9,72.5,30.22,NW,325,0.0,0.0,71,0.00,,SCT,0.02,462.00,VWS V14.01,2013-08-20 21:05:00,
2013-08-20 17:10:00,82.8,72.9,30.22,NNW,333,0.0,0.0,72,0.00,,SCT,0.02,427.00,VWS V14.01,2013-08-20 21:10:00,
2013-08-20 17:15:00,82.3,72.4,30.21,WNW,296,0.0,0.0,72,0.00,,SCT,0.02,415.00,VWS V14.01,2013-08-20 21:15:00,
2013-08-20 17:20:00,82.5,72.6,30.22,NNW,338,0.0,0.0,72,0.00,,SCT,0.02,325.00,VWS V14.01,2013-08-20 21:20:00,
2013-08-20 17:25:00,82.5,72.6,30.21,NNW,331,0.0,0.0,72,0.00,,SCT,0.02,390.00,VWS V14.01,2013-08-20 21:25:00,
2013-08-20 17:30:00,82.6,72.2,30.21,NNW,331,0.0,0.0,71,0.00,,SCT,0.02,276.00,VWS V14.01,2013-08-20 21:30:00,
2013-08-20 17:35:00,82.6,72.2,30.21,North,351,0.0,0.0,71,0.00,,SCT,0.02,366.00,VWS V14.01,2013-08-20 21:35:00,
2013-08-20 17:40:00,82.6,72.2,30.21,NW,321,0.0,0.0,71,0.00,,SCT,0.02,353.00,VWS V14.01,2013-08-20 21:40:00,
2013-08-20 17:45:00,82.8,72.0,30.21,NNW,332,0.0,0.0,70,0.00,,SCT,0.02,315.00,VWS V14.01,2013-08-20 21:45:00,
2013-08-20 17:50:00,82.6,71.8,30.21,NW,307,0.0,0.0,70,0.00,,SCT,0.02,316.00,VWS V14.01,2013-08-20 21:50:00,
2013-08-20 17:55:00,82.7,71.9,30.21,North,355,0.0,0.0,70,0.00,,SCT,0.02,316.00,VWS V14.01,2013-08-20 21:55:00,
2013-08-20 18:00:00,82.8,71.6,30.21,NW,314,0.0,0.0,69,0.00,,SCT,0.02,304.00,VWS V14.01,2013-08-20 22:00:00,
2013-08-20 18:05:00,82.7,71.5,30.21,NNW,335,0.0,0.0,69,0.00,,SCT,0.02,294.00,VWS V14.01,2013-08-20 22:05:00,
2013-08-20 18:10:00,82.8,71.6,30.21,NNW,347,0.0,0.0,69,0.00,,SCT,0.02,262.00,VWS V14.01,2013-08-20 22:10:00,
2013-08-20 18:15:00,82.6,71.4,30.21,NNW,338,0.0,0.0,69,0.00,,SCT,0.02,169.00,VWS V14.01,2013-08-20 22:15:00,
2013-08-20 18:20:00,82.4,71.6,30.21,NW,324,0.0,0.0,70,0.00,,SCT,0.02,243.00,VWS V14.01,2013-08-20 22:20:00,
2013-08-20 18:25:00,82.5,71.7,30.21,NW,304,0.0,0.0,70,0.00,,SCT,0.02,127.00,VWS V14.01,2013-08-20 22:25:00,
2013-08-20 18:30:00,82.3,72.0,30.21,NW,304,0.0,0.0,71,0.00,,SCT,0.02,118.00,VWS V14.01,2013-08-20 22:30:00,
2013-08-20 18:35:00,82.1,72.6,30.21,North,349,0.0,0.0,73,0.00,,SCT,0.02,202.00,VWS V14.01,2013-08-20 22:35:00,
2013-08-20 18:40:00,82.1,73.0,30.21,NW,309,0.0,0.0,74,0.00,,SCT,0.02,148.00,VWS V14.01,2013-08-20 22:40:00,
2013-08-20 18:45:00,81.9,73.2,30.21,NNW,329,0.0,0.0,75,0.00,,SCT,0.02,163.00,VWS V14.01,2013-08-20 22:45:00,
2013-08-20 18:50:00,81.8,73.1,30.21,NW,317,0.0,0.0,75,0.00,,SCT,0.02,134.00,VWS V14.01,2013-08-20 22:50:00,
2013-08-20 18:55:00,81.7,73.4,30.21,NW,317,0.0,0.0,76,0.00,,SCT,0.02,125.00,VWS V14.01,2013-08-20 22:55:00,
2013-08-20 19:00:00,81.7,73.4,30.21,NW,317,0.0,0.0,76,0.00,,SCT,0.02,125.00,VWS V14.01,2013-08-20 23:00:00,
2013-08-20 19:05:00,81.6,73.3,30.22,NW,315,0.0,0.0,76,0.00,,SCT,0.02,102.00,VWS V14.01,2013-08-20 23:05:00,
2013-08-20 19:10:00,81.7,73.8,30.22,NNW,332,0.0,0.0,77,0.00,,SCT,0.02,72.00,VWS V14.01,2013-08-20 23:10:00,
2013-08-20 19:15:00,81.7,73.4,30.22,NNW,336,0.0,0.0,76,0.00,,SCT,0.02,69.00,VWS V14.01,2013-08-20 23:15:00,
2013-08-20 19:20:00,81.7,73.0,30.22,NNW,333,0.0,0.0,75,0.00,,SCT,0.02,58.00,VWS V14.01,2013-08-20 23:20:00,
2013-08-20 19:25:00,81.7,73.4,30.22,NNW,327,0.0,0.0,76,0.00,,SCT,0.02,51.00,VWS V14.01,2013-08-20 23:25:00,
2013-08-20 19:30:00,81.5,72.8,30.22,NNW,344,0.0,0.0,75,0.00,,SCT,0.02,42.00,VWS V14.01,2013-08-20 23:30:00,
2013-08-20 19:35:00,81.3,73.0,30.22,North,5,0.0,0.0,76,0.00,,SCT,0.02,33.00,VWS V14.01,2013-08-20 23:35:00,
2013-08-20 19:40:00,81.1,73.2,30.22,North,350,0.0,0.0,77,0.00,,SCT,0.02,26.00,VWS V14.01,2013-08-20 23:40:00,
2013-08-20 19:45:00,80.9,73.0,30.22,North,350,0.0,0.0,77,0.00,,SCT,0.02,19.00,VWS V14.01,2013-08-20 23:45:00,
2013-08-20 19:50:00,80.8,73.3,30.23,North,350,0.0,0.0,78,0.00,,SCT,0.02,14.00,VWS V14.01,2013-08-20 23:50:00,
2013-08-20 19:55:00,80.6,73.1,30.23,North,355,0.0,0.0,78,0.00,,SCT,0.02,11.00,VWS V14.01,2013-08-20 23:55:00,
2013-08-20 20:00:00,80.4,73.3,30.23,North,355,0.0,0.0,79,0.00,,SCT,0.02,11.00,VWS V14.01,2013-08-21 00:00:00,
2013-08-20 20:05:00,80.1,73.0,30.22,North,355,0.0,0.0,79,0.00,,SCT,0.02,0.00,VWS V14.01,2013-08-21 00:05:00,
2013-08-20 20:10:00,79.8,72.3,30.23,North,355,0.0,0.0,78,0.00,,SCT,0.02,0.00,VWS V14.01,2013-08-21 00:10:00,
2013-08-20 20:15:00,79.7,73.0,30.23,North,355,0.0,0.0,80,0.00,,SCT,0.02,0.00,VWS V14.01,2013-08-21 00:15:00,
2013-08-20 20:20:00,79.4,73.4,30.23,North,355,0.0,0.0,82,0.00,,SCT,0.02,0.00,VWS V14.01,2013-08-21 00:20:00,
2013-08-20 20:25:00,79.0,73.4,30.23,North,355,0.0,0.0,83,0.00,,SCT,0.02,0.00,VWS V14.01,2013-08-21 00:25:00,
2013-08-20 20:30:00,78.7,73.1,30.23,North,355,0.0,0.0,83,0.00,,SCT,0.02,0.00,VWS V14.01,2013-08-21 00:30:00,
2013-08-20 20:35:00,78.5,72.9,30.24,North,355,0.0,0.0,83,0.00,,SCT,0.02,0.00,VWS V14.01,2013-08-21 00:35:00,
2013-08-20 20:40:00,78.3,73.1,30.24,North,355,0.0,0.0,84,0.00,,SCT,0.02,0.00,VWS V14.01,2013-08-21 00:40:00,
2013-08-20 20:45:00,78.2,73.0,30.24,North,355,0.0,0.0,84,0.00,,SCT,0.02,0.00,VWS V14.01,2013-08-21 00:45:00,
2013-08-20 20:50:00,78.0,72.4,30.24,North,355,0.0,0.0,83,0.00,,SCT,0.02,0.00,VWS V14.01,2013-08-21 00:50:00,
2013-08-20 20:55:00,77.9,73.0,30.24,North,355,0.0,0.0,85,0.00,,SCT,0.02,0.00,VWS V14.01,2013-08-21 00:55:00,
2013-08-20 21:00:00,77.8,72.9,30.24,North,355,0.0,0.0,85,0.00,,SCT,0.02,0.00,VWS V14.01,2013-08-21 01:00:00,
2013-08-20 21:05:00,77.6,73.1,30.24,North,355,0.0,0.0,86,0.00,,SCT,0.02,0.00,VWS V14.01,2013-08-21 01:05:00,
2013-08-20 21:10:00,77.4,72.5,30.24,North,355,0.0,0.0,85,0.00,,SCT,0.02,0.00,VWS V14.01,2013-08-21 01:10:00,
2013-08-20 21:15:00,77.1,72.6,30.24,North,355,0.0,0.0,86,0.00,,SCT,0.02,0.00,VWS V14.01,2013-08-21 01:15:00,
2013-08-20 21:19:00,76.9,72.4,30.24,North,355,0.0,0.0,86,0.00,,SCT,0.02,0.00,VWS V14.01,2013-08-21 01:19:00,
2013-08-20 21:24:00,76.6,72.1,30.25,North,355,0.0,0.0,86,0.00,,SCT,0.02,0.00,VWS V14.01,2013-08-21 01:24:00,
2013-08-20 21:29:00,76.5,72.0,30.25,North,355,0.0,0.0,86,0.00,,SCT,0.02,0.00,VWS V14.01,2013-08-21 01:29:00,
2013-08-20 21:34:00,76.4,71.9,30.25,North,355,0.0,0.0,86,0.01,,SCT,0.03,0.00,VWS V14.01,2013-08-21 01:34:00,
2013-08-20 21:39:00,76.3,71.8,30.25,North,355,0.0,0.0,86,0.01,,SCT,0.03,0.00,VWS V14.01,2013-08-21 01:39:00,
2013-08-20 21:44:00,76.2,71.7,30.25,North,355,0.0,0.0,86,0.01,,SCT,0.03,0.00,VWS V14.01,2013-08-21 01:44:00,
2013-08-20 21:49:00,76.1,71.6,30.25,North,355,0.0,0.0,86,0.01,,SCT,0.03,0.00,VWS V14.01,2013-08-21 01:49:00,
2013-08-20 21:54:00,76.0,71.5,30.25,North,355,0.0,0.0,86,0.01,,SCT,0.03,0.00,VWS V14.01,2013-08-21 01:54:00,
2013-08-20 21:59:00,75.9,71.4,30.25,North,355,0.0,0.0,86,0.01,,SCT,0.03,0.00,VWS V14.01,2013-08-21 01:59:00,
2013-08-20 22:00:00,76.0,71.5,30.25,North,355,0.0,0.0,86,0.01,,SCT,0.03,0.00,VWS V14.01,2013-08-21 02:00:00,
2013-08-20 22:04:00,75.8,71.7,30.25,North,355,0.0,0.0,87,0.01,,SCT,0.03,0.00,VWS V14.01,2013-08-21 02:04:00,
2013-08-20 22:09:00,75.7,71.6,30.25,North,355,0.0,0.0,87,0.01,,SCT,0.03,0.00,VWS V14.01,2013-08-21 02:09:00,
2013-08-20 22:14:00,75.7,71.9,30.26,North,355,0.0,0.0,88,0.01,,SCT,0.03,0.00,VWS V14.01,2013-08-21 02:14:00,
2013-08-20 22:19:00,75.5,71.7,30.26,North,355,0.0,0.0,88,0.01,,SCT,0.03,0.00,VWS V14.01,2013-08-21 02:19:00,
2013-08-20 22:24:00,75.5,71.7,30.25,North,355,0.0,0.0,88,0.01,,SCT,0.03,0.00,VWS V14.01,2013-08-21 02:24:00,
2013-08-20 22:29:00,75.4,71.6,30.25,North,355,0.0,0.0,88,0.01,,SCT,0.03,0.00,VWS V14.01,2013-08-21 02:29:00,
2013-08-20 22:34:00,75.3,71.8,30.26,North,355,0.0,0.0,89,0.01,,SCT,0.03,0.00,VWS V14.01,2013-08-21 02:34:00,
2013-08-20 22:39:00,75.2,71.7,30.25,North,355,0.0,0.0,89,0.01,,SCT,0.03,0.00,VWS V14.01,2013-08-21 02:39:00,
2013-08-20 22:44:00,75.1,71.6,30.25,North,355,0.0,0.0,89,0.01,,SCT,0.03,0.00,VWS V14.01,2013-08-21 02:44:00,
2013-08-20 22:49:00,74.7,71.2,30.26,North,355,0.0,0.0,89,0.01,,SCT,0.03,0.00,VWS V14.01,2013-08-21 02:49:00,
2013-08-20 22:54:00,74.5,71.4,30.26,North,355,0.0,0.0,90,0.00,,SCT,0.03,0.00,VWS V14.01,2013-08-21 02:54:00,
2013-08-20 22:59:00,74.3,71.5,30.26,North,355,0.0,0.0,91,0.00,,SCT,0.03,0.00,VWS V14.01,2013-08-21 02:59:00,
2013-08-20 23:00:00,74.6,71.5,30.26,North,355,0.0,0.0,90,0.01,,SCT,0.03,0.00,VWS V14.01,2013-08-21 03:00:00,
2013-08-20 23:04:00,74.3,71.5,30.26,North,355,0.0,0.0,91,0.00,,SCT,0.03,0.00,VWS V14.01,2013-08-21 03:04:00,
2013-08-20 23:09:00,74.2,71.7,30.26,North,355,0.0,0.0,92,0.00,,SCT,0.03,0.00,VWS V14.01,2013-08-21 03:09:00,
2013-08-20 23:14:00,74.1,71.6,30.26,North,355,0.0,0.0,92,0.00,,SCT,0.03,0.00,VWS V14.01,2013-08-21 03:14:00,
2013-08-20 23:19:00,74.0,71.5,30.26,North,355,0.0,0.0,92,0.00,,SCT,0.03,0.00,VWS V14.01,2013-08-21 03:19:00,
2013-08-20 23:24:00,73.9,71.4,30.26,North,355,0.0,0.0,92,0.00,,SCT,0.03,0.00,VWS V14.01,2013-08-21 03:24:00,
2013-08-20 23:29:00,73.7,71.2,30.26,North,355,0.0,0.0,92,0.00,,SCT,0.03,0.00,VWS V14.01,2013-08-21 03:29:00,
2013-08-20 23:34:00,73.7,71.2,30.26,North,355,0.0,0.0,92,0.00,,SCT,0.03,0.00,VWS V14.01,2013-08-21 03:34:00,
2013-08-20 23:39:00,73.5,71.4,30.26,North,355,0.0,0.0,93,0.00,,SCT,0.03,0.00,VWS V14.01,2013-08-21 03:39:00,
2013-08-20 23:44:00,73.4,71.3,30.26,North,355,0.0,0.0,93,0.00,,SCT,0.03,0.00,VWS V14.01,2013-08-21 03:44:00,
2013-08-20 23:49:00,73.3,71.2,30.26,North,355,0.0,0.0,93,0.00,,SCT,0.03,0.00,VWS V14.01,2013-08-21 03:49:00,
2013-08-20 23:54:00,73.3,71.2,30.26,North,355,0.0,0.0,93,0.00,,SCT,0.00,0.00,VWS V14.01,2013-08-21 03:54:00,
2013-08-20 23:59:00,73.2,71.1,30.26,North,355,0.0,0.0,93,0.00,,SCT,0.00,0.00,VWS V14.01,2013-08-21 03:59:00,